Crane Gaia — 3FXX2 — position and weather

sailwx.info

Track history (hours):
 
Tides and Currents Weather Stations Pressure Air Temp Water Temp Dewpoint Dewpoint Depression Visibility Wind Speed Wind Dir Waves Ship Positions

Crane Gaia

Last reported at 2015-Jul-31 13:22 UTC. Time now 2015-Jul-31 15:29 UTC.
Position N 31°21' E 123°32'.

Length 115 m; draft 7.6 m.

Type: Tanker. MMSI: 352461000.

Date/timePositionNaut miles runAvg speedWind from/ knotsBaromVisibWave heightAir tempDewpointWater temp
2015-Jul-31 13:22N 31°21' E 123°32'1112.7
2015-Jul-31 12:27N 31°15' E 123°21'1213.0
2015-Jul-31 11:33N 31°09' E 123°09'1313.1
2015-Jul-31 10:33N 31°02' E 122°56'1212.3
2015-Jul-31 09:33N 30°57' E 122°43'1312.6
2015-Jul-31 08:33N 30°53' E 122°29'1212.2
2015-Jul-31 07:33N 30°46' E 122°18'1212.1
2015-Jul-31 06:33N 30°35' E 122°13'1413.5
2015-Jul-31 05:33N 30°28' E 121°59'1313.0
2015-Jul-31 04:32N 30°20' E 121°47'2 0.1
2015-Jul-29 21:23N 30°18' E 121°45'0 0.0
2015-Jul-29 20:30N 30°18' E 121°45'0 0.0
2015-Jul-29 18:33N 30°18' E 121°45'0 0.0
2015-Jul-29 17:27N 30°18' E 121°45'0 0.0
2015-Jul-29 16:27N 30°18' E 121°45'0 0.0
2015-Jul-29 11:26N 30°19' E 121°45'0 0.0
2015-Jul-29 10:27N 30°19' E 121°45'0 0.1
2015-Jul-29 08:30N 30°18' E 121°45'3 2.9
2015-Jul-29 07:33N 30°21' E 121°46'1110.5
2015-Jul-29 06:33N 30°27' E 121°56'9 8.8
2015-Jul-29 05:33N 30°32' E 122°05'10 9.7
2015-Jul-29 04:34N 30°38' E 122°13'1211.7
2015-Jul-29 03:33N 30°50' E 122°18'1211.4
2015-Jul-29 02:31N 30°52' E 122°31'1212.2
2015-Jul-29 01:32N 30°54' E 122°45'1212.2
2015-Jul-29 00:31N 31°00' E 122°57'1212.6
2015-Jul-28 23:34N 31°08' E 123°08'1212.1
2015-Jul-28 22:34N 31°15' E 123°20'2912.4
2015-Jul-28 20:11N 31°29' E 123°50'912.6
2015-Jul-28 19:30N 31°32' E 123°60'2812.4
2015-Jul-28 17:14N 31°44' E 124°29'812.1
2015-Jul-28 16:34N 31°48' E 124°38'32012.7
2015-Jul-27 15:27N 34°02' E 130°24'473 9.8
2015-Jul-25 15:15N 34°45' E 139°55'1012.2
2015-Jul-25 14:26N 34°49' E 140°06'1213.4
2015-Jul-25 13:33N 34°57' E 140°17'1413.3
2015-Jul-25 12:32N 35°06' E 140°29'2412.2
2015-Jul-25 10:33N 35°23' E 140°50'1313.1
2015-Jul-25 09:32N 35°35' E 140°58'2813.1
2015-Jul-25 07:25N 36°02' E 141°07'  
Track history (hours):
 
Tides and Currents Weather Stations Pressure Air Temp Water Temp Dewpoint Dewpoint Depression Visibility Wind Speed Wind Dir Waves Ship Positions

Crane Gaia

Last reported at 2015-Jul-31 13:22 UTC. Time now 2015-Jul-31 15:29 UTC.
Position N 31°21' E 123°32'.

Length 115 m; draft 7.6 m.

Type: Tanker. MMSI: 352461000.

Date/timePositionNaut miles runAvg speedWind from/ knotsBaromVisibWave heightAir tempDewpointWater temp
2015-Jul-31 13:22N 31°21' E 123°32'1112.7
2015-Jul-31 12:27N 31°15' E 123°21'1213.0
2015-Jul-31 11:33N 31°09' E 123°09'1313.1
2015-Jul-31 10:33N 31°02' E 122°56'1212.3
2015-Jul-31 09:33N 30°57' E 122°43'1312.6
2015-Jul-31 08:33N 30°53' E 122°29'1212.2
2015-Jul-31 07:33N 30°46' E 122°18'1212.1
2015-Jul-31 06:33N 30°35' E 122°13'1413.5
2015-Jul-31 05:33N 30°28' E 121°59'1313.0
2015-Jul-31 04:32N 30°20' E 121°47'2 0.1
2015-Jul-29 21:23N 30°18' E 121°45'0 0.0
2015-Jul-29 20:30N 30°18' E 121°45'0 0.0
2015-Jul-29 18:33N 30°18' E 121°45'0 0.0
2015-Jul-29 17:27N 30°18' E 121°45'0 0.0
2015-Jul-29 16:27N 30°18' E 121°45'0 0.0
2015-Jul-29 11:26N 30°19' E 121°45'0 0.0
2015-Jul-29 10:27N 30°19' E 121°45'0 0.1
2015-Jul-29 08:30N 30°18' E 121°45'3 2.9
2015-Jul-29 07:33N 30°21' E 121°46'1110.5
2015-Jul-29 06:33N 30°27' E 121°56'9 8.8
2015-Jul-29 05:33N 30°32' E 122°05'10 9.7
2015-Jul-29 04:34N 30°38' E 122°13'1211.7
2015-Jul-29 03:33N 30°50' E 122°18'1211.4
2015-Jul-29 02:31N 30°52' E 122°31'1212.2
2015-Jul-29 01:32N 30°54' E 122°45'1212.2
2015-Jul-29 00:31N 31°00' E 122°57'1212.6
2015-Jul-28 23:34N 31°08' E 123°08'1212.1
2015-Jul-28 22:34N 31°15' E 123°20'2912.4
2015-Jul-28 20:11N 31°29' E 123°50'912.6
2015-Jul-28 19:30N 31°32' E 123°60'2812.4
2015-Jul-28 17:14N 31°44' E 124°29'812.1
2015-Jul-28 16:34N 31°48' E 124°38'32012.7
2015-Jul-27 15:27N 34°02' E 130°24'473 9.8
2015-Jul-25 15:15N 34°45' E 139°55'1012.2
2015-Jul-25 14:26N 34°49' E 140°06'1213.4
2015-Jul-25 13:33N 34°57' E 140°17'1413.3
2015-Jul-25 12:32N 35°06' E 140°29'2412.2
2015-Jul-25 10:33N 35°23' E 140°50'1313.1
2015-Jul-25 09:32N 35°35' E 140°58'2813.1
2015-Jul-25 07:25N 36°02' E 141°07'  

Dump ship's entire track history